createdAt,value
2018-07-20T00:02:22.494Z,10.00
2018-07-20T00:04:53.451Z,8.00
2018-07-20T00:07:25.577Z,9.75
2018-07-20T00:09:56.050Z,9.25
2018-07-20T00:12:26.519Z,9.50
2018-07-20T00:14:56.936Z,10.00
2018-07-20T00:17:27.344Z,8.50
2018-07-20T00:19:58.020Z,9.50
2018-07-20T00:22:28.313Z,10.00
2018-07-20T00:24:58.686Z,9.75
2018-07-20T00:27:30.144Z,10.00
2018-07-20T00:30:00.965Z,9.50
2018-07-20T00:32:33.435Z,10.00
2018-07-20T00:35:05.102Z,10.25
2018-07-20T00:37:36.587Z,10.00
2018-07-20T00:40:08.589Z,10.00
2018-07-20T00:42:38.941Z,10.00
2018-07-20T00:45:15.066Z,8.25
2018-07-20T00:47:45.632Z,10.75
2018-07-20T00:50:21.683Z,8.75
2018-07-20T00:52:52.311Z,8.75
2018-07-20T00:55:22.713Z,9.25
2018-07-20T00:57:57.257Z,10.25
2018-07-20T01:00:29.114Z,9.25
2018-07-20T01:03:02.652Z,10.00
2018-07-20T01:05:36.879Z,9.25
2018-07-20T01:08:09.466Z,11.00
2018-07-20T01:10:43.440Z,12.00
2018-07-20T01:13:17.428Z,12.50
2018-07-20T01:15:49.336Z,10.50
2018-07-20T01:18:19.796Z,11.00
2018-07-20T01:20:50.319Z,11.25
2018-07-20T01:23:21.103Z,11.75
2018-07-20T01:25:52.247Z,10.00
2018-07-20T01:28:23.420Z,11.00
2018-07-20T01:30:54.247Z,11.00
2018-07-20T01:33:24.822Z,9.75
2018-07-20T01:35:55.417Z,11.00
2018-07-20T01:38:25.586Z,11.50
2018-07-20T01:40:55.776Z,13.00
2018-07-20T01:43:26.897Z,11.25
2018-07-20T01:45:59.210Z,10.75
2018-07-20T01:48:34.911Z,9.75
2018-07-20T01:51:06.900Z,12.00
2018-07-20T01:53:37.720Z,8.75
2018-07-20T01:56:14.251Z,13.00
2018-07-20T01:58:44.728Z,14.25
2018-07-20T02:01:16.894Z,12.50
2018-07-20T02:03:47.310Z,11.00
2018-07-20T02:06:19.573Z,12.00
2018-07-20T02:08:50.218Z,12.25
2018-07-20T02:11:21.534Z,11.50
2018-07-20T02:13:51.893Z,11.75
2018-07-20T02:16:23.645Z,10.50
2018-07-20T02:18:54.283Z,10.50
2018-07-20T02:21:25.121Z,9.75
2018-07-20T02:23:57.204Z,11.00
2018-07-20T02:26:27.731Z,9.75
2018-07-20T02:28:58.539Z,10.00
2018-07-20T02:31:29.454Z,10.25
2018-07-20T02:34:01.943Z,9.50
2018-07-20T02:36:33.182Z,9.50
2018-07-20T02:39:09.904Z,10.25
2018-07-20T02:41:40.741Z,9.50
2018-07-20T02:44:11.947Z,10.00
2018-07-20T02:46:42.591Z,10.00
2018-07-20T02:49:14.972Z,10.00
2018-07-20T02:51:46.260Z,10.00
2018-07-20T02:54:16.593Z,8.50
2018-07-20T02:56:50.270Z,11.00
2018-07-20T02:59:22.208Z,9.75
2018-07-20T03:01:53.060Z,11.00
2018-07-20T03:04:24.351Z,9.25
2018-07-20T03:06:55.005Z,10.00
2018-07-20T03:09:27.251Z,9.50
2018-07-20T03:11:57.904Z,10.75
2018-07-20T03:14:28.578Z,10.00
2018-07-20T03:16:59.070Z,10.00
2018-07-20T03:19:30.722Z,10.75
2018-07-20T03:22:02.512Z,10.00
2018-07-20T03:24:33.442Z,11.00
2018-07-20T03:27:04.093Z,13.00
2018-07-20T03:29:35.116Z,10.00
2018-07-20T03:32:07.563Z,11.00
2018-07-20T03:34:38.590Z,10.00
2018-07-20T03:37:09.816Z,11.75
2018-07-20T03:39:40.395Z,11.00
2018-07-20T03:42:10.734Z,13.00
2018-07-20T03:44:41.349Z,11.25
2018-07-20T03:47:13.177Z,12.50
2018-07-20T03:49:44.009Z,13.00
2018-07-20T03:52:15.222Z,13.25
2018-07-20T03:54:45.994Z,14.25
2018-07-20T03:57:16.359Z,14.00
2018-07-20T03:59:48.079Z,14.00
2018-07-20T04:02:20.009Z,13.75
2018-07-20T04:04:51.298Z,16.50
2018-07-20T04:07:22.018Z,15.50
2018-07-20T04:09:52.750Z,15.50
2018-07-20T04:12:23.524Z,14.50
2018-07-20T04:15:00.743Z,17.50
2018-07-20T04:17:44.749Z,20.50
2018-07-20T04:20:17.625Z,19.50
2018-07-20T04:22:59.211Z,20.50
2018-07-20T04:25:32.129Z,20.75
2018-07-20T04:28:03.568Z,20.75
2018-07-20T04:30:37.077Z,18.25
2018-07-20T04:33:07.930Z,21.00
2018-07-20T04:35:41.520Z,18.75
2018-07-20T04:38:12.042Z,22.00
2018-07-20T04:40:43.324Z,21.00
2018-07-20T04:43:13.785Z,21.00
2018-07-20T04:45:46.086Z,20.50
2018-07-20T04:48:18.280Z,21.00
2018-07-20T04:50:48.836Z,22.75
2018-07-20T04:53:21.685Z,21.00
2018-07-20T04:55:53.500Z,21.00
2018-07-20T04:58:23.907Z,21.00
2018-07-20T05:00:54.565Z,23.00
2018-07-20T05:03:26.850Z,22.75
2018-07-20T05:05:57.885Z,21.75
2018-07-20T05:08:28.658Z,21.75
2018-07-20T05:10:59.033Z,21.75
2018-07-20T05:13:30.918Z,21.25
2018-07-20T05:16:02.675Z,21.00
2018-07-20T05:18:33.934Z,20.25
2018-07-20T05:21:04.298Z,22.25
2018-07-20T05:23:40.098Z,21.25
2018-07-20T05:26:15.561Z,23.00
2018-07-20T05:28:50.383Z,23.75
2018-07-20T05:31:24.088Z,23.00
2018-07-20T05:33:59.153Z,23.25
2018-07-20T05:36:31.662Z,23.50
2018-07-20T05:39:02.032Z,22.75
2018-07-20T05:41:34.662Z,23.75
2018-07-20T05:44:17.783Z,24.75
2018-07-20T05:46:54.595Z,24.25
2018-07-20T05:49:30.761Z,25.00
2018-07-20T05:52:05.635Z,24.75
2018-07-20T05:54:37.447Z,24.75
2018-07-20T05:57:09.383Z,24.75
2018-07-20T05:59:42.203Z,23.00
2018-07-20T06:02:15.005Z,24.00
2018-07-20T06:04:46.024Z,23.75
2018-07-20T06:07:18.703Z,24.75
2018-07-20T06:09:53.322Z,24.25
2018-07-20T06:12:25.821Z,26.25
2018-07-20T06:15:00.220Z,26.00
2018-07-20T06:17:37.863Z,24.25
2018-07-20T06:20:16.006Z,25.75
2018-07-20T06:22:51.986Z,26.00
2018-07-20T06:25:24.274Z,25.75
2018-07-20T06:27:58.464Z,25.75
2018-07-20T06:30:41.211Z,26.50
2018-07-20T06:33:12.742Z,26.50
2018-07-20T06:35:45.333Z,25.50
2018-07-20T06:38:28.783Z,25.25
2018-07-20T06:41:02.841Z,25.50
2018-07-20T06:43:34.590Z,26.25
2018-07-20T06:46:06.635Z,26.75
2018-07-20T06:48:38.388Z,27.75
2018-07-20T06:51:10.585Z,26.00
2018-07-20T06:53:41.707Z,27.00
2018-07-20T06:58:55.839Z,27.00
2018-07-20T07:01:27.212Z,26.75
2018-07-20T07:04:21.392Z,27.00
2018-07-20T07:06:54.359Z,26.00
2018-07-20T07:09:28.139Z,26.00
2018-07-20T07:12:02.759Z,27.00
2018-07-20T07:14:34.012Z,26.50
2018-07-20T07:17:06.013Z,25.75
2018-07-20T07:19:36.679Z,25.50
2018-07-20T07:22:08.789Z,25.25
2018-07-20T07:24:41.544Z,25.00
2018-07-20T07:27:12.200Z,25.00
2018-07-20T07:30:07.325Z,24.75
2018-07-20T07:32:47.482Z,23.00
2018-07-20T07:35:26.428Z,22.75
2018-07-20T07:38:00.946Z,22.50
2018-07-20T07:40:35.140Z,25.25
2018-07-20T07:43:13.304Z,23.00
2018-07-20T07:45:47.598Z,24.00
2018-07-20T07:48:19.817Z,23.00
2018-07-20T07:50:50.616Z,23.50
2018-07-20T07:53:35.147Z,23.00
2018-07-20T07:56:07.118Z,23.00
2018-07-20T07:58:40.491Z,23.25
2018-07-20T08:01:12.833Z,24.75
2018-07-20T08:03:44.874Z,24.25
2018-07-20T08:06:25.153Z,25.00
2018-07-20T08:09:01.496Z,26.75
2018-07-20T08:11:43.128Z,23.75
2018-07-20T08:14:29.798Z,25.00
2018-07-20T08:17:05.484Z,25.00
2018-07-20T08:19:39.305Z,26.25
2018-07-20T08:22:16.480Z,25.25
2018-07-20T08:25:05.898Z,22.75
2018-07-20T08:27:36.625Z,25.25
2018-07-20T08:30:09.573Z,25.75
2018-07-20T08:32:42.060Z,25.75
2018-07-20T08:35:12.891Z,25.00
2018-07-20T08:37:43.643Z,24.50
2018-07-20T08:40:16.427Z,25.00
2018-07-20T08:42:49.764Z,24.00
2018-07-20T08:45:22.483Z,22.25
2018-07-20T08:47:53.524Z,25.00
2018-07-20T08:50:32.605Z,23.00
2018-07-20T08:53:08.607Z,24.50
2018-07-20T08:55:50.491Z,23.25
2018-07-20T09:01:14.137Z,23.50
2018-07-20T09:03:51.533Z,22.00
2018-07-20T09:06:24.554Z,24.00
2018-07-20T09:09:03.641Z,23.50
2018-07-20T09:11:34.596Z,22.00
2018-07-20T09:16:46.303Z,23.75
2018-07-20T09:19:17.463Z,23.75
2018-07-20T09:21:49.200Z,22.75
2018-07-20T09:24:21.438Z,20.25
2018-07-20T09:26:59.998Z,24.25
2018-07-20T09:29:38.405Z,22.00
2018-07-20T09:32:15.985Z,25.00
2018-07-20T09:34:49.390Z,24.00
2018-07-20T09:37:31.333Z,23.50
2018-07-20T09:40:12.427Z,25.00
2018-07-20T09:42:54.383Z,22.75
2018-07-20T09:45:34.338Z,23.75
2018-07-20T09:48:06.432Z,21.00
2018-07-20T09:50:42.796Z,23.75
2018-07-20T09:53:20.416Z,21.25
2018-07-20T09:55:55.080Z,21.00
2018-07-20T09:58:35.724Z,20.50
2018-07-20T10:01:07.964Z,21.25
2018-07-20T10:03:40.805Z,21.50
2018-07-20T10:06:15.971Z,22.00
2018-07-20T10:08:53.097Z,19.75
2018-07-20T10:11:28.777Z,20.00
2018-07-20T10:14:06.609Z,22.50
2018-07-20T10:16:39.834Z,21.00
2018-07-20T10:19:11.299Z,22.75
2018-07-20T10:21:47.590Z,20.75
2018-07-20T10:24:34.363Z,21.00
2018-07-20T10:29:46.605Z,21.00
2018-07-20T10:32:36.289Z,21.00
2018-07-20T10:35:14.368Z,21.50
2018-07-20T10:37:46.586Z,20.00
2018-07-20T10:40:20.158Z,21.00
2018-07-20T10:42:59.466Z,21.50
2018-07-20T10:45:39.119Z,20.50
2018-07-20T10:48:39.496Z,23.25
2018-07-20T10:51:14.617Z,21.25
2018-07-20T10:53:51.427Z,23.00
2018-07-20T10:56:23.840Z,22.00
2018-07-20T10:58:55.903Z,22.00
2018-07-20T11:01:27.747Z,22.25
2018-07-20T11:04:05.449Z,23.50
2018-07-20T11:06:48.738Z,23.25
2018-07-20T11:09:21.345Z,21.00
2018-07-20T11:11:55.780Z,20.50
2018-07-20T11:14:28.562Z,21.00
2018-07-20T11:17:02.668Z,21.00
2018-07-20T11:19:36.917Z,22.00
2018-07-20T11:22:22.054Z,19.00
2018-07-20T11:26:19.258Z,21.00
2018-07-20T11:28:55.837Z,21.00
2018-07-20T11:31:32.941Z,19.50
2018-07-20T11:34:06.513Z,19.25
2018-07-20T11:36:41.497Z,21.75
2018-07-20T11:39:18.739Z,21.00
2018-07-20T11:44:42.889Z,22.00
2018-07-20T11:47:17.283Z,22.50
2018-07-20T11:49:49.748Z,22.00
2018-07-20T11:52:37.674Z,21.25
2018-07-20T11:55:16.786Z,19.50
2018-07-20T11:57:48.018Z,21.75
2018-07-20T12:00:21.376Z,21.00
2018-07-20T12:03:02.042Z,22.75
2018-07-20T12:05:33.857Z,20.75
2018-07-20T12:08:08.361Z,21.50
2018-07-20T12:10:42.932Z,22.00
2018-07-20T12:13:14.609Z,22.50
2018-07-20T12:15:46.528Z,22.00
2018-07-20T12:18:20.576Z,22.25
2018-07-20T12:20:51.708Z,21.00
2018-07-20T12:23:27.046Z,21.00
2018-07-20T12:26:03.327Z,22.75
2018-07-20T12:28:39.463Z,23.50
2018-07-20T12:31:14.657Z,22.50
2018-07-20T12:33:58.318Z,22.50
2018-07-20T12:36:44.748Z,21.75
2018-07-20T12:39:35.173Z,21.00
2018-07-20T12:42:13.889Z,22.75
2018-07-20T12:44:47.397Z,20.00
2018-07-20T12:47:23.311Z,19.75
2018-07-20T12:49:54.432Z,20.50
2018-07-20T12:52:29.765Z,20.25
2018-07-20T12:55:12.712Z,19.75
2018-07-20T12:57:46.729Z,19.00
2018-07-20T13:00:32.295Z,18.50
2018-07-20T13:03:11.434Z,21.00
2018-07-20T13:05:48.075Z,19.00
2018-07-20T13:08:22.394Z,20.00
2018-07-20T13:10:58.512Z,19.00
2018-07-20T13:13:29.910Z,19.25
2018-07-20T13:16:00.690Z,19.00
2018-07-20T13:18:38.508Z,20.50
2018-07-20T13:21:11.450Z,17.75
2018-07-20T13:23:47.810Z,18.25
2018-07-20T13:26:21.323Z,19.00
2018-07-20T13:28:53.275Z,18.75
2018-07-20T13:31:24.907Z,19.00
2018-07-20T13:33:55.720Z,18.25
2018-07-20T13:36:27.403Z,19.25
2018-07-20T13:39:06.227Z,19.00
2018-07-20T13:41:38.044Z,19.50
2018-07-20T13:44:12.676Z,18.25
2018-07-20T13:46:46.909Z,18.00
2018-07-20T13:49:20.776Z,17.00
2018-07-20T13:51:56.947Z,19.25
2018-07-20T13:54:30.401Z,17.00
2018-07-20T13:57:01.247Z,17.00
2018-07-20T13:59:34.410Z,17.00
2018-07-20T14:02:10.137Z,17.25
2018-07-20T14:04:43.241Z,15.50
2018-07-20T14:07:23.379Z,16.00
2018-07-20T14:09:58.683Z,17.00
2018-07-20T14:12:37.680Z,17.00
2018-07-20T14:15:18.981Z,17.50
2018-07-20T14:17:56.598Z,17.25
2018-07-20T14:20:28.500Z,14.75
2018-07-20T14:22:59.858Z,19.75
2018-07-20T14:25:34.263Z,14.75
2018-07-20T14:28:06.607Z,18.00
2018-07-20T14:33:28.996Z,17.00
2018-07-20T14:36:02.039Z,17.00
2018-07-20T14:38:33.458Z,17.00
2018-07-20T14:41:06.938Z,14.50
2018-07-20T14:43:38.425Z,13.00
2018-07-20T14:46:11.619Z,16.25
2018-07-20T14:48:45.602Z,15.00
2018-07-20T14:51:19.319Z,13.00
2018-07-20T14:53:50.794Z,14.50
2018-07-20T14:56:24.154Z,16.00
2018-07-20T14:58:55.452Z,13.00
2018-07-20T15:01:35.879Z,14.25
2018-07-20T15:04:07.955Z,15.75
2018-07-20T15:06:40.555Z,15.00
2018-07-20T15:09:13.355Z,13.75
2018-07-20T15:11:48.601Z,14.00
2018-07-20T15:16:53.837Z,14.75
2018-07-20T15:19:34.842Z,13.50
2018-07-20T15:22:07.921Z,13.00
2018-07-20T15:24:46.015Z,13.00
2018-07-20T15:30:20.601Z,12.75
2018-07-20T15:32:56.832Z,12.25
2018-07-20T15:35:28.233Z,12.00
2018-07-20T15:37:59.986Z,13.25
2018-07-20T15:40:30.511Z,12.50
2018-07-20T15:43:10.104Z,11.50
2018-07-20T15:45:51.882Z,11.75
2018-07-20T15:48:14.220Z,12.25
2018-07-20T15:50:45.464Z,11.50
2018-07-20T15:53:43.669Z,11.00
2018-07-20T15:55:46.858Z,8.50
2018-07-20T15:58:18.353Z,11.75
2018-07-20T16:00:50.773Z,11.50
2018-07-20T16:03:28.190Z,11.00
2018-07-20T16:06:02.572Z,10.25
2018-07-20T16:08:35.504Z,9.50
2018-07-20T16:11:07.957Z,10.00
2018-07-20T16:13:49.646Z,12.00
2018-07-20T16:16:27.234Z,10.00
2018-07-20T16:18:57.453Z,10.00
2018-07-20T16:21:29.716Z,10.00
2018-07-20T16:24:00.306Z,10.50
2018-07-20T16:26:48.874Z,9.00
2018-07-20T16:29:19.799Z,9.25
2018-07-20T16:31:55.630Z,8.50
2018-07-20T16:34:31.203Z,10.00
2018-07-20T16:37:03.313Z,9.00
2018-07-20T16:39:36.415Z,10.25
2018-07-20T16:42:07.624Z,10.00
2018-07-20T16:44:44.145Z,9.00
2018-07-20T16:47:17.442Z,8.75
2018-07-20T16:49:49.364Z,9.00
2018-07-20T16:52:26.967Z,9.75
2018-07-20T16:54:58.190Z,8.50
2018-07-20T16:57:33.132Z,9.00
2018-07-20T17:00:08.443Z,8.75
2018-07-20T17:03:00.285Z,7.00
2018-07-20T17:05:32.809Z,8.25
2018-07-20T17:08:29.709Z,7.75
2018-07-20T17:11:15.354Z,7.75
2018-07-20T17:13:51.626Z,8.50
2018-07-20T17:16:31.878Z,7.00
2018-07-20T17:19:05.900Z,7.75
2018-07-20T17:21:37.648Z,8.50
2018-07-20T17:24:10.522Z,7.75
2018-07-20T17:26:47.204Z,7.25
2018-07-20T17:29:21.303Z,8.50
2018-07-20T17:31:54.915Z,9.00
2018-07-20T17:34:26.743Z,8.75
2018-07-20T17:36:56.992Z,8.75
2018-07-20T17:39:27.406Z,9.25
2018-07-20T17:41:58.405Z,9.00
2018-07-20T17:44:30.365Z,10.00
2018-07-20T17:47:04.596Z,8.25
2018-07-20T17:49:38.386Z,8.00
2018-07-20T17:52:09.686Z,7.75
2018-07-20T17:54:41.292Z,8.25
2018-07-20T17:57:14.751Z,7.00
2018-07-20T17:59:46.036Z,8.00
2018-07-20T18:02:17.513Z,9.00
2018-07-20T18:04:50.399Z,8.25
2018-07-20T18:07:22.378Z,8.00
2018-07-20T18:09:53.451Z,8.75
2018-07-20T18:12:24.748Z,8.50
2018-07-20T18:14:56.073Z,9.00
2018-07-20T18:17:29.409Z,9.00
2018-07-20T18:20:00.327Z,7.75
2018-07-20T18:22:32.519Z,8.50
2018-07-20T18:25:05.039Z,8.25
2018-07-20T18:27:38.655Z,9.00
2018-07-20T18:30:09.633Z,9.00
2018-07-20T18:32:40.176Z,9.00
2018-07-20T18:35:10.734Z,9.50
2018-07-20T18:37:41.114Z,9.00
2018-07-20T18:40:12.520Z,9.75
2018-07-20T18:42:44.368Z,11.00
2018-07-20T18:45:17.671Z,8.50
2018-07-20T18:47:47.969Z,8.00
2018-07-20T18:50:30.554Z,10.00
2018-07-20T18:53:02.741Z,10.50
2018-07-20T18:55:33.431Z,10.00
2018-07-20T18:58:07.142Z,9.00
2018-07-20T19:00:38.030Z,9.25
2018-07-20T19:03:10.975Z,11.25
2018-07-20T19:05:42.626Z,11.00
2018-07-20T19:08:14.306Z,10.00
2018-07-20T19:10:49.111Z,10.00
2018-07-20T19:13:20.543Z,10.00
2018-07-20T19:15:51.533Z,10.75
2018-07-20T19:18:22.410Z,10.50
2018-07-20T19:20:52.771Z,10.00
2018-07-20T19:23:24.516Z,10.00
2018-07-20T19:25:55.829Z,9.50
2018-07-20T19:28:26.760Z,10.25
2018-07-20T19:30:58.739Z,9.00
2018-07-20T19:33:29.411Z,9.00
2018-07-20T19:36:02.209Z,9.25
2018-07-20T19:38:33.010Z,9.75
2018-07-20T19:41:10.680Z,9.50
2018-07-20T19:43:42.891Z,9.00
2018-07-20T19:46:17.530Z,9.00
2018-07-20T19:48:49.255Z,10.50
2018-07-20T19:51:24.873Z,11.00
2018-07-20T19:53:57.853Z,9.00
2018-07-20T19:56:30.163Z,10.00
2018-07-20T19:59:03.742Z,9.00
2018-07-20T20:01:37.671Z,9.00
2018-07-20T20:04:10.973Z,9.00
2018-07-20T20:06:41.731Z,8.25
2018-07-20T20:09:16.739Z,9.75
2018-07-20T20:11:48.411Z,8.25
2018-07-20T20:14:19.399Z,9.00
2018-07-20T20:16:50.820Z,9.25
2018-07-20T20:19:22.859Z,10.00
2018-07-20T20:21:55.493Z,11.50
2018-07-20T20:24:28.365Z,10.50
2018-07-20T20:27:04.243Z,8.75
2018-07-20T20:29:40.360Z,10.00
2018-07-20T20:32:14.111Z,10.50
2018-07-20T20:34:51.038Z,9.75
2018-07-20T20:37:26.033Z,11.25
2018-07-20T20:39:58.138Z,11.50
2018-07-20T20:45:37.754Z,10.50
2018-07-20T20:48:08.694Z,10.00
2018-07-20T20:50:50.210Z,10.00
2018-07-20T20:53:21.995Z,8.50
2018-07-20T20:55:54.538Z,10.00
2018-07-20T20:58:25.332Z,12.00
2018-07-20T21:01:12.466Z,9.00
2018-07-20T21:03:43.793Z,11.00
2018-07-20T21:06:19.284Z,9.75
2018-07-20T21:08:51.198Z,9.25
2018-07-20T21:11:32.090Z,9.25
2018-07-20T21:14:06.531Z,9.25
2018-07-20T21:16:41.515Z,9.75
2018-07-20T21:19:18.255Z,8.00
2018-07-20T21:21:50.620Z,8.75
2018-07-20T21:24:23.464Z,9.25
2018-07-20T21:26:55.344Z,7.75
2018-07-20T21:29:26.330Z,8.00
2018-07-20T21:31:59.679Z,9.00
2018-07-20T21:34:33.598Z,11.00
2018-07-20T21:37:07.906Z,9.25
2018-07-20T21:42:37.592Z,9.00
2018-07-20T21:45:08.876Z,9.00
2018-07-20T21:47:39.740Z,10.75
2018-07-20T21:50:10.568Z,10.00
2018-07-20T21:52:41.476Z,9.75
2018-07-20T21:55:12.836Z,9.00
2018-07-20T21:57:44.875Z,9.50
2018-07-20T22:00:23.253Z,9.50
2018-07-20T22:02:53.604Z,10.00
2018-07-20T22:05:36.507Z,9.00
2018-07-20T22:08:08.291Z,10.25
2018-07-20T22:10:43.985Z,9.50
2018-07-20T22:13:16.177Z,9.25
2018-07-20T22:15:52.553Z,9.00
2018-07-20T22:18:26.556Z,9.75
2018-07-20T22:20:59.887Z,9.00
2018-07-20T22:23:36.462Z,8.50
2018-07-20T22:26:09.746Z,10.75
2018-07-20T22:28:53.853Z,10.00
2018-07-20T22:31:28.562Z,9.50
2018-07-20T22:34:04.017Z,8.25
2018-07-20T22:36:35.174Z,9.00
2018-07-20T22:39:11.718Z,10.75
2018-07-20T22:41:42.330Z,10.25
2018-07-20T22:44:17.470Z,9.25
2018-07-20T22:46:49.580Z,9.75
2018-07-20T22:49:21.373Z,10.50
2018-07-20T22:51:55.647Z,9.50
2018-07-20T22:54:26.161Z,9.50
2018-07-20T22:57:00.571Z,10.25
2018-07-20T22:59:31.464Z,10.50
2018-07-20T23:02:06.085Z,10.00
2018-07-20T23:04:38.423Z,10.50
2018-07-20T23:07:12.754Z,11.00
2018-07-20T23:09:50.257Z,12.25
2018-07-20T23:12:24.841Z,9.75
2018-07-20T23:14:58.365Z,10.75
2018-07-20T23:17:47.505Z,10.75
2018-07-20T23:20:26.507Z,10.75
2018-07-20T23:22:58.931Z,11.25
2018-07-20T23:25:30.534Z,11.75
2018-07-20T23:28:02.935Z,12.25
2018-07-20T23:30:43.052Z,11.00
2018-07-20T23:33:14.583Z,12.00
2018-07-20T23:35:45.025Z,13.00
2018-07-20T23:38:17.387Z,12.75
2018-07-20T23:40:48.719Z,12.25
2018-07-20T23:43:20.147Z,11.25
2018-07-20T23:45:55.401Z,9.75
2018-07-20T23:48:31.272Z,10.50
2018-07-20T23:51:08.997Z,10.75
2018-07-20T23:53:41.603Z,12.50
2018-07-20T23:56:12.611Z,12.75
2018-07-20T23:58:45.027Z,12.25
